createdAt,value
2018-07-26T00:00:24.173Z,0.00
2018-07-26T00:01:24.164Z,0.00
2018-07-26T00:02:24.151Z,0.00
2018-07-26T00:03:24.162Z,0.00
2018-07-26T00:04:24.141Z,0.00
2018-07-26T00:05:24.119Z,0.00
2018-07-26T00:06:24.119Z,0.00
2018-07-26T00:07:24.057Z,0.00
2018-07-26T00:08:24.132Z,0.00
2018-07-26T00:09:24.084Z,0.00
2018-07-26T00:10:24.071Z,0.00
2018-07-26T00:11:24.054Z,0.00
2018-07-26T00:12:24.151Z,0.00
2018-07-26T00:13:24.061Z,0.00
2018-07-26T00:14:24.019Z,0.00
2018-07-26T00:15:24.010Z,0.00
2018-07-26T00:16:24.152Z,0.00
2018-07-26T00:17:23.996Z,0.00
2018-07-26T00:18:24.115Z,0.00
2018-07-26T00:19:23.984Z,0.00
2018-07-26T00:20:23.958Z,0.00
2018-07-26T00:21:23.951Z,0.00
2018-07-26T00:22:24.013Z,0.00
2018-07-26T00:23:23.962Z,0.00
2018-07-26T00:24:23.911Z,0.00
2018-07-26T00:25:23.901Z,0.00
2018-07-26T00:26:23.894Z,0.00
2018-07-26T00:27:23.885Z,0.00
2018-07-26T00:28:23.917Z,0.00
2018-07-26T00:29:23.858Z,0.00
2018-07-26T00:30:23.855Z,0.00
2018-07-26T00:31:23.836Z,0.00
2018-07-26T00:32:23.832Z,0.00
2018-07-26T00:33:23.845Z,0.00
2018-07-26T00:34:23.807Z,0.00
2018-07-26T00:35:23.790Z,0.00
2018-07-26T00:36:23.791Z,0.00
2018-07-26T00:37:23.734Z,0.00
2018-07-26T00:38:23.798Z,0.00
2018-07-26T00:39:23.750Z,0.00
2018-07-26T00:40:23.746Z,0.00
2018-07-26T00:41:23.825Z,0.00
2018-07-26T00:42:23.724Z,0.00
2018-07-26T00:43:23.730Z,0.00
2018-07-26T00:44:23.711Z,0.00
2018-07-26T00:45:23.640Z,0.00
2018-07-26T00:46:23.671Z,0.00
2018-07-26T00:47:23.663Z,0.00
2018-07-26T00:48:23.679Z,0.00
2018-07-26T00:49:23.643Z,0.00
2018-07-26T00:50:23.635Z,0.00
2018-07-26T00:51:23.630Z,0.00
2018-07-26T00:52:23.611Z,0.00
2018-07-26T00:53:23.624Z,0.00
2018-07-26T00:54:23.547Z,0.00
2018-07-26T00:55:23.599Z,0.00
2018-07-26T00:56:30.715Z,0.00
2018-07-26T00:57:23.566Z,0.00
2018-07-26T00:58:23.493Z,0.00
2018-07-26T00:59:23.561Z,0.00
2018-07-26T01:00:23.480Z,0.00
2018-07-26T01:01:23.512Z,0.00
2018-07-26T01:02:23.509Z,0.00
2018-07-26T01:03:23.496Z,0.00
2018-07-26T01:04:23.508Z,0.00
2018-07-26T01:05:23.436Z,0.00
2018-07-26T01:06:23.483Z,0.00
2018-07-26T01:07:23.454Z,0.00
2018-07-26T01:08:23.442Z,0.00
2018-07-26T01:09:23.592Z,0.00
2018-07-26T01:10:23.413Z,0.00
2018-07-26T01:11:23.525Z,0.00
2018-07-26T01:12:23.359Z,0.00
2018-07-26T01:13:23.384Z,0.00
2018-07-26T01:14:23.355Z,0.00
2018-07-26T01:15:23.342Z,0.00
2018-07-26T01:16:23.349Z,0.00
2018-07-26T01:17:23.342Z,0.00
2018-07-26T01:18:23.350Z,0.00
2018-07-26T01:19:23.447Z,0.00
2018-07-26T01:20:23.307Z,0.00
2018-07-26T01:21:23.308Z,0.00
2018-07-26T01:22:23.294Z,0.00
2018-07-26T01:23:23.288Z,0.00
2018-07-26T01:24:23.301Z,0.00
2018-07-26T01:25:23.258Z,0.00
2018-07-26T01:26:23.243Z,0.00
2018-07-26T01:27:23.239Z,0.00
2018-07-26T01:28:23.216Z,0.00
2018-07-26T01:29:23.283Z,0.00
2018-07-26T01:30:23.197Z,0.00
2018-07-26T01:31:23.197Z,0.00
2018-07-26T01:32:23.184Z,0.00
2018-07-26T01:33:23.162Z,0.00
2018-07-26T01:34:23.178Z,0.00
2018-07-26T01:35:23.168Z,0.00
2018-07-26T01:36:23.149Z,0.00
2018-07-26T01:37:23.127Z,0.00
2018-07-26T01:38:23.108Z,0.00
2018-07-26T01:39:23.130Z,0.00
2018-07-26T01:40:23.092Z,0.00
2018-07-26T01:41:23.089Z,0.00
2018-07-26T01:42:23.070Z,0.00
2018-07-26T01:43:23.060Z,0.00
2018-07-26T01:44:23.042Z,0.00
2018-07-26T01:45:23.033Z,0.00
2018-07-26T01:46:23.023Z,0.00
2018-07-26T01:47:23.020Z,0.00
2018-07-26T01:48:23.007Z,0.00
2018-07-26T01:49:23.026Z,0.00
2018-07-26T01:50:22.981Z,0.00
2018-07-26T01:51:22.981Z,0.00
2018-07-26T01:52:22.959Z,0.00
2018-07-26T01:53:22.959Z,0.00
2018-07-26T01:54:22.965Z,0.00
2018-07-26T01:55:22.928Z,0.00
2018-07-26T01:56:22.918Z,0.00
2018-07-26T01:57:22.905Z,0.00
2018-07-26T01:58:22.895Z,0.00
2018-07-26T01:59:22.924Z,0.00
2018-07-26T02:00:22.876Z,0.00
2018-07-26T02:01:22.877Z,0.00
2018-07-26T02:02:22.848Z,0.00
2018-07-26T02:03:22.848Z,0.00
2018-07-26T02:04:22.858Z,0.00
2018-07-26T02:05:22.832Z,0.00
2018-07-26T02:06:22.809Z,0.00
2018-07-26T02:07:22.796Z,0.00
2018-07-26T02:08:22.867Z,0.00
2018-07-26T02:09:22.803Z,0.00
2018-07-26T02:10:22.778Z,0.00
2018-07-26T02:11:22.762Z,0.00
2018-07-26T02:12:22.706Z,0.00
2018-07-26T02:13:22.733Z,0.00
2018-07-26T02:14:22.812Z,0.00
2018-07-26T02:15:22.730Z,0.00
2018-07-26T02:16:22.700Z,0.00
2018-07-26T02:17:22.700Z,0.00
2018-07-26T02:18:22.640Z,0.00
2018-07-26T02:19:22.692Z,0.00
2018-07-26T02:20:22.660Z,0.00
2018-07-26T02:21:22.658Z,0.00
2018-07-26T02:22:22.634Z,0.00
2018-07-26T02:23:22.621Z,0.00
2018-07-26T02:24:22.667Z,0.00
2018-07-26T02:25:22.654Z,0.00
2018-07-26T02:26:22.605Z,0.00
2018-07-26T02:27:22.579Z,0.00
2018-07-26T02:28:22.528Z,0.00
2018-07-26T02:29:22.591Z,0.00
2018-07-26T02:30:22.564Z,0.00
2018-07-26T02:31:22.544Z,0.00
2018-07-26T02:32:22.529Z,0.00
2018-07-26T02:33:22.519Z,0.00
2018-07-26T02:34:22.550Z,0.00
2018-07-26T02:35:22.493Z,0.00
2018-07-26T02:36:22.500Z,0.00
2018-07-26T02:37:22.493Z,0.00
2018-07-26T02:38:22.464Z,0.00
2018-07-26T02:39:22.406Z,0.00
2018-07-26T02:40:22.420Z,0.00
2018-07-26T02:41:22.427Z,0.00
2018-07-26T02:42:22.414Z,0.00
2018-07-26T02:43:22.414Z,0.00
2018-07-26T02:44:22.402Z,0.00
2018-07-26T02:45:22.411Z,0.00
2018-07-26T02:46:22.376Z,0.00
2018-07-26T02:47:22.365Z,0.00
2018-07-26T02:48:22.363Z,0.00
2018-07-26T02:49:22.300Z,0.00
2018-07-26T02:50:22.363Z,0.00
2018-07-26T02:51:22.279Z,0.00
2018-07-26T02:52:22.315Z,0.00
2018-07-26T02:53:22.304Z,0.00
2018-07-26T02:54:22.290Z,0.00
2018-07-26T02:55:22.301Z,0.00
2018-07-26T02:56:22.280Z,0.00
2018-07-26T02:57:22.258Z,0.00
2018-07-26T02:58:22.257Z,0.00
2018-07-26T02:59:22.235Z,0.00
2018-07-26T03:00:22.248Z,0.00
2018-07-26T03:01:22.248Z,0.00
2018-07-26T03:02:22.200Z,0.00
2018-07-26T03:03:22.197Z,0.00
2018-07-26T03:04:22.189Z,0.00
2018-07-26T03:05:22.178Z,0.00
2018-07-26T03:06:22.167Z,0.00
2018-07-26T03:07:22.227Z,0.00
2018-07-26T03:08:22.137Z,0.00
2018-07-26T03:09:22.127Z,4.00
2018-07-26T03:10:22.146Z,4.00
2018-07-26T03:11:22.108Z,0.00
2018-07-26T03:12:22.101Z,4.00
2018-07-26T03:13:22.091Z,4.00
2018-07-26T03:14:22.073Z,0.00
2018-07-26T03:15:22.087Z,4.00
2018-07-26T03:16:22.055Z,4.00
2018-07-26T03:17:22.052Z,8.00
2018-07-26T03:18:22.030Z,8.00
2018-07-26T03:19:22.018Z,8.00
2018-07-26T03:20:22.027Z,8.00
2018-07-26T03:21:21.996Z,12.00
2018-07-26T03:22:21.981Z,12.00
2018-07-26T03:23:21.987Z,16.00
2018-07-26T03:24:21.959Z,16.00
2018-07-26T03:25:21.985Z,20.00
2018-07-26T03:26:21.940Z,20.00
2018-07-26T03:27:21.933Z,28.00
2018-07-26T03:28:21.924Z,32.00
2018-07-26T03:29:21.908Z,40.00
2018-07-26T03:30:21.901Z,40.00
2018-07-26T03:31:21.930Z,48.00
2018-07-26T03:32:21.879Z,56.00
2018-07-26T03:33:21.866Z,64.00
2018-07-26T03:34:21.864Z,68.00
2018-07-26T03:35:21.842Z,76.00
2018-07-26T03:36:21.866Z,88.00
2018-07-26T03:37:21.825Z,96.00
2018-07-26T03:38:21.806Z,108.00
2018-07-26T03:39:21.810Z,120.00
2018-07-26T03:40:21.790Z,140.00
2018-07-26T03:41:21.803Z,152.00
2018-07-26T03:42:21.774Z,168.00
2018-07-26T03:43:21.761Z,184.00
2018-07-26T03:44:21.748Z,204.00
2018-07-26T03:45:21.733Z,220.00
2018-07-26T03:46:21.755Z,240.00
2018-07-26T03:47:21.714Z,260.00
2018-07-26T03:48:21.707Z,280.00
2018-07-26T03:49:21.695Z,308.00
2018-07-26T03:50:21.686Z,332.00
2018-07-26T03:51:21.709Z,360.00
2018-07-26T03:52:21.665Z,392.00
2018-07-26T03:53:21.645Z,424.00
2018-07-26T03:54:21.639Z,456.00
2018-07-26T03:55:21.629Z,492.00
2018-07-26T03:56:21.641Z,528.00
2018-07-26T03:57:21.607Z,572.00
2018-07-26T03:58:21.633Z,616.00
2018-07-26T03:59:21.603Z,644.00
2018-07-26T04:00:21.538Z,696.00
2018-07-26T04:01:21.584Z,752.00
2018-07-26T04:02:21.552Z,804.00
2018-07-26T04:03:21.594Z,864.00
2018-07-26T04:04:21.633Z,924.00
2018-07-26T04:05:21.520Z,984.00
2018-07-26T04:06:21.533Z,1044.00
2018-07-26T04:07:21.500Z,1108.00
2018-07-26T04:08:21.487Z,1168.00
2018-07-26T04:09:21.476Z,1240.00
2018-07-26T04:10:21.479Z,1308.00
2018-07-26T04:11:21.476Z,1376.00
2018-07-26T04:12:21.440Z,1448.00
2018-07-26T04:13:21.433Z,1532.00
2018-07-26T04:14:21.437Z,1608.00
2018-07-26T04:15:21.418Z,1696.00
2018-07-26T04:16:21.421Z,1776.00
2018-07-26T04:17:21.392Z,1852.00
2018-07-26T04:18:21.379Z,1916.00
2018-07-26T04:19:21.369Z,1976.00
2018-07-26T04:20:21.315Z,2032.00
2018-07-26T04:21:21.383Z,2084.00
2018-07-26T04:22:21.335Z,2144.00
2018-07-26T04:23:21.325Z,2276.00
2018-07-26T04:24:21.276Z,2348.00
2018-07-26T04:25:21.294Z,2416.00
2018-07-26T04:26:21.405Z,2484.00
2018-07-26T04:27:21.256Z,2560.00
2018-07-26T04:28:21.271Z,2636.00
2018-07-26T04:29:21.261Z,2716.00
2018-07-26T04:30:21.255Z,2788.00
2018-07-26T04:31:21.265Z,2872.00
2018-07-26T04:32:21.245Z,2968.00
2018-07-26T04:33:21.216Z,3068.00
2018-07-26T04:34:21.248Z,3156.00
2018-07-26T04:35:21.200Z,3220.00
2018-07-26T04:36:21.216Z,3280.00
2018-07-26T04:37:21.178Z,3344.00
2018-07-26T04:38:21.156Z,3404.00
2018-07-26T04:39:21.148Z,3460.00
2018-07-26T04:40:21.146Z,3524.00
2018-07-26T04:41:21.156Z,3612.00
2018-07-26T04:42:21.114Z,3800.00
2018-07-26T04:43:21.065Z,3856.00
2018-07-26T04:44:21.102Z,3792.00
2018-07-26T04:45:21.082Z,3704.00
2018-07-26T04:46:21.105Z,3668.00
2018-07-26T04:47:21.086Z,3700.00
2018-07-26T04:48:21.052Z,3848.00
2018-07-26T04:49:21.056Z,3800.00
2018-07-26T04:50:21.040Z,3804.00
2018-07-26T04:51:21.056Z,3888.00
2018-07-26T04:52:21.017Z,3952.00
2018-07-26T04:53:21.005Z,4044.00
2018-07-26T04:54:20.986Z,4176.00
2018-07-26T04:55:20.934Z,4300.00
2018-07-26T04:56:20.963Z,4440.00
2018-07-26T04:57:20.964Z,4544.00
2018-07-26T04:58:20.973Z,4628.00
2018-07-26T04:59:20.938Z,4696.00
2018-07-26T05:00:20.928Z,4768.00
2018-07-26T05:01:20.918Z,4868.00
2018-07-26T05:02:20.935Z,4980.00
2018-07-26T05:03:20.909Z,5116.00
2018-07-26T05:04:20.886Z,5280.00
2018-07-26T05:05:20.877Z,5456.00
2018-07-26T05:06:20.861Z,5620.00
2018-07-26T05:07:20.982Z,5804.00
2018-07-26T05:08:20.841Z,6016.00
2018-07-26T05:09:20.847Z,6244.00
2018-07-26T05:10:20.819Z,6484.00
2018-07-26T05:11:20.812Z,6720.00
2018-07-26T05:12:20.822Z,6944.00
2018-07-26T05:13:20.807Z,7132.00
2018-07-26T05:14:20.774Z,7296.00
2018-07-26T05:15:20.760Z,7464.00
2018-07-26T05:16:20.751Z,7624.00
2018-07-26T05:17:20.838Z,7744.00
2018-07-26T05:18:20.776Z,7808.00
2018-07-26T05:19:20.735Z,7800.00
2018-07-26T05:20:20.710Z,7772.00
2018-07-26T05:21:20.709Z,7760.00
2018-07-26T05:22:20.716Z,7788.00
2018-07-26T05:23:20.694Z,7832.00
2018-07-26T05:24:20.618Z,7880.00
2018-07-26T05:25:20.657Z,7920.00
2018-07-26T05:26:20.647Z,7936.00
2018-07-26T05:27:20.689Z,7960.00
2018-07-26T05:28:20.622Z,8028.00
2018-07-26T05:29:20.612Z,8144.00
2018-07-26T05:30:20.599Z,8300.00
2018-07-26T05:31:20.590Z,8500.00
2018-07-26T05:32:20.610Z,8616.00
2018-07-26T05:33:20.568Z,8656.00
2018-07-26T05:34:20.558Z,8724.00
2018-07-26T05:35:20.552Z,8812.00
2018-07-26T05:36:20.539Z,8912.00
2018-07-26T05:37:20.771Z,8976.00
2018-07-26T05:38:20.542Z,9000.00
2018-07-26T05:39:20.505Z,9004.00
2018-07-26T05:40:20.513Z,8980.00
2018-07-26T05:41:20.481Z,8892.00
2018-07-26T05:42:20.494Z,8824.00
2018-07-26T05:43:20.460Z,8852.00
2018-07-26T05:44:20.453Z,9028.00
2018-07-26T05:45:20.433Z,9260.00
2018-07-26T05:46:20.388Z,9512.00
2018-07-26T05:47:20.452Z,9664.00
2018-07-26T05:48:20.411Z,9828.00
2018-07-26T05:49:20.405Z,10008.00
2018-07-26T05:50:20.382Z,10196.00
2018-07-26T05:51:20.369Z,10376.00
2018-07-26T05:52:20.398Z,10528.00
2018-07-26T05:53:20.363Z,10672.00
2018-07-26T05:54:20.347Z,10856.00
2018-07-26T05:55:20.331Z,11056.00
2018-07-26T05:56:20.570Z,11272.00
2018-07-26T05:57:20.340Z,11512.00
2018-07-26T05:58:20.298Z,11736.00
2018-07-26T05:59:20.292Z,11928.00
2018-07-26T06:00:20.247Z,12104.00
2018-07-26T06:01:20.272Z,12276.00
2018-07-26T06:02:20.283Z,12488.00
2018-07-26T06:03:20.258Z,12772.00
2018-07-26T06:04:20.232Z,13076.00
2018-07-26T06:05:20.226Z,13328.00
2018-07-26T06:06:20.229Z,13548.00
2018-07-26T06:07:20.226Z,13804.00
2018-07-26T06:08:20.200Z,14144.00
2018-07-26T06:09:20.175Z,14468.00
2018-07-26T06:10:20.178Z,14748.00
2018-07-26T06:11:20.159Z,15112.00
2018-07-26T06:12:20.255Z,15508.00
2018-07-26T06:13:20.136Z,15928.00
2018-07-26T06:14:20.136Z,16076.00
2018-07-26T06:15:20.114Z,16264.00
2018-07-26T06:16:20.114Z,16704.00
2018-07-26T06:17:20.131Z,17088.00
2018-07-26T06:18:20.048Z,17376.00
2018-07-26T06:19:20.076Z,17568.00
2018-07-26T06:20:20.061Z,17888.00
2018-07-26T06:21:20.066Z,18176.00
2018-07-26T06:22:20.075Z,18592.00
2018-07-26T06:23:20.032Z,18976.00
2018-07-26T06:24:20.038Z,20224.00
2018-07-26T06:25:20.009Z,23456.00
2018-07-26T06:26:19.999Z,26112.00
2018-07-26T06:27:20.016Z,29024.00
2018-07-26T06:28:20.015Z,34080.00
2018-07-26T06:29:19.970Z,36000.00
2018-07-26T06:30:19.973Z,43648.00
2018-07-26T06:31:19.945Z,48512.00
2018-07-26T06:32:19.957Z,48256.00
2018-07-26T06:33:19.976Z,47872.00
2018-07-26T06:34:19.930Z,42848.00
2018-07-26T06:35:19.909Z,44576.00
2018-07-26T06:36:19.898Z,36448.00
2018-07-26T06:37:19.882Z,38976.00
2018-07-26T06:38:19.894Z,39072.00
2018-07-26T06:39:19.816Z,40352.00
2018-07-26T06:40:19.858Z,44992.00
2018-07-26T06:41:19.850Z,46016.00
2018-07-26T06:42:19.853Z,45536.00
2018-07-26T06:43:19.887Z,41312.00
2018-07-26T06:44:19.813Z,40800.00
2018-07-26T06:45:19.805Z,39552.00
2018-07-26T06:46:19.796Z,37408.00
2018-07-26T06:47:19.789Z,32672.00
2018-07-26T06:48:19.812Z,36544.00
2018-07-26T06:49:19.763Z,42240.00
2018-07-26T06:50:19.760Z,44640.00
2018-07-26T06:51:19.751Z,45536.00
2018-07-26T06:52:19.731Z,46336.00
2018-07-26T06:53:19.709Z,44768.00
2018-07-26T06:54:19.709Z,42976.00
2018-07-26T06:55:19.832Z,43072.00
2018-07-26T06:56:19.693Z,43424.00
2018-07-26T06:57:19.686Z,44704.00
2018-07-26T06:58:19.693Z,45952.00
2018-07-26T06:59:19.622Z,47008.00
2018-07-26T07:00:19.680Z,48480.00
2018-07-26T07:01:19.644Z,49216.00
2018-07-26T07:02:19.631Z,49088.00
2018-07-26T07:03:19.637Z,48896.00
2018-07-26T07:04:19.605Z,49600.00
2018-07-26T07:05:19.555Z,50080.00
2018-07-26T07:06:19.594Z,49184.00
2018-07-26T07:07:19.587Z,47744.00
2018-07-26T07:08:19.596Z,48288.00
2018-07-26T07:09:19.519Z,50336.00
2018-07-26T07:10:19.551Z,50016.00
2018-07-26T07:11:19.545Z,48448.00
2018-07-26T07:12:19.535Z,47712.00
2018-07-26T07:13:19.551Z,48416.00
2018-07-26T07:14:19.513Z,49088.00
2018-07-26T07:15:19.500Z,48896.00
2018-07-26T07:16:19.494Z,48992.00
2018-07-26T07:17:19.475Z,48928.00
2018-07-26T07:18:19.504Z,48448.00
2018-07-26T07:19:19.478Z,47200.00
2018-07-26T07:20:19.457Z,46560.00
2018-07-26T07:21:19.439Z,47232.00
2018-07-26T07:22:19.425Z,48960.00
2018-07-26T07:23:19.453Z,51680.00
2018-07-26T07:24:19.415Z,52800.00
2018-07-26T07:25:19.357Z,53856.00
2018-07-26T07:26:19.351Z,55008.00
2018-07-26T07:27:19.382Z,56128.00
2018-07-26T07:28:19.411Z,57216.00
2018-07-26T07:29:19.358Z,57504.00
2018-07-26T07:30:19.356Z,56800.00
2018-07-26T07:31:19.347Z,56992.00
2018-07-26T07:32:19.332Z,58112.00
2018-07-26T07:33:19.315Z,59040.00
2018-07-26T07:34:19.312Z,58848.00
2018-07-26T07:35:19.319Z,58080.00
2018-07-26T07:36:19.260Z,57344.00
2018-07-26T07:37:19.280Z,57312.00
2018-07-26T07:38:19.301Z,55520.00
2018-07-26T07:39:19.264Z,55168.00
2018-07-26T07:40:19.258Z,54976.00
2018-07-26T07:41:19.248Z,57568.00
2018-07-26T07:42:19.248Z,58560.00
2018-07-26T07:43:19.251Z,58592.00
2018-07-26T07:44:19.224Z,59520.00
2018-07-26T07:45:19.207Z,59648.00
2018-07-26T07:46:19.163Z,59168.00
2018-07-26T07:47:19.262Z,59072.00
2018-07-26T07:48:19.306Z,59552.00
2018-07-26T07:49:19.171Z,60032.00
2018-07-26T07:50:19.159Z,60480.00
2018-07-26T07:51:19.144Z,58080.00
2018-07-26T07:52:19.090Z,57760.00
2018-07-26T07:53:19.152Z,58784.00
2018-07-26T07:54:19.120Z,60576.00
2018-07-26T07:55:19.063Z,61216.00
2018-07-26T07:56:19.058Z,61696.00
2018-07-26T07:57:19.104Z,60416.00
2018-07-26T07:58:19.122Z,58176.00
2018-07-26T07:59:19.071Z,58112.00
2018-07-26T08:00:19.062Z,57856.00
2018-07-26T08:01:19.051Z,58720.00
2018-07-26T08:02:19.051Z,56832.00
2018-07-26T08:03:19.058Z,57664.00
2018-07-26T08:04:19.019Z,58208.00
2018-07-26T08:05:19.060Z,60512.00
2018-07-26T08:06:19.003Z,62592.00
2018-07-26T08:07:18.996Z,62464.00
2018-07-26T08:08:19.010Z,63616.00
2018-07-26T08:09:18.975Z,66272.00
2018-07-26T08:10:18.965Z,67360.00
2018-07-26T08:11:18.970Z,69792.00
2018-07-26T08:12:18.943Z,69152.00
2018-07-26T08:13:18.962Z,67776.00
2018-07-26T08:14:18.884Z,65664.00
2018-07-26T08:15:18.918Z,62976.00
2018-07-26T08:16:18.913Z,62720.00
2018-07-26T08:17:18.891Z,63744.00
2018-07-26T08:18:18.917Z,62560.00
2018-07-26T08:19:18.875Z,63040.00
2018-07-26T08:20:18.872Z,63776.00
2018-07-26T08:21:18.878Z,65024.00
2018-07-26T08:22:18.859Z,64480.00
2018-07-26T08:23:18.862Z,62368.00
2018-07-26T08:24:18.823Z,60736.00
2018-07-26T08:25:18.822Z,61248.00
2018-07-26T08:26:18.807Z,46496.00
2018-07-26T08:27:18.797Z,23008.00
2018-07-26T08:28:18.826Z,15284.00
2018-07-26T08:29:18.832Z,14712.00
2018-07-26T08:30:18.769Z,14500.00
2018-07-26T08:31:18.759Z,14340.00
2018-07-26T08:32:18.757Z,14124.00
2018-07-26T08:33:18.756Z,13768.00
2018-07-26T08:34:18.762Z,13396.00
2018-07-26T08:35:18.733Z,13080.00
2018-07-26T08:36:18.712Z,12872.00
2018-07-26T08:37:18.718Z,12768.00
2018-07-26T08:38:18.692Z,12696.00
2018-07-26T08:39:18.855Z,12624.00
2018-07-26T08:40:18.679Z,12568.00
2018-07-26T08:41:18.628Z,12512.00
2018-07-26T08:42:18.660Z,12468.00
2018-07-26T08:43:18.647Z,12420.00
2018-07-26T08:44:18.670Z,12352.00
2018-07-26T08:45:18.749Z,12252.00
2018-07-26T08:46:18.615Z,12136.00
2018-07-26T08:47:18.618Z,11996.00
2018-07-26T08:48:18.627Z,11832.00
2018-07-26T08:49:18.679Z,11672.00
2018-07-26T08:50:18.577Z,11548.00
2018-07-26T08:51:18.535Z,11456.00
2018-07-26T08:52:18.597Z,11384.00
2018-07-26T08:53:18.554Z,11316.00
2018-07-26T08:54:18.589Z,11272.00
2018-07-26T08:55:18.558Z,11252.00
2018-07-26T08:56:18.513Z,11236.00
2018-07-26T08:57:18.507Z,11228.00
2018-07-26T08:58:18.504Z,11224.00
2018-07-26T08:59:18.517Z,11212.00
2018-07-26T09:00:18.471Z,11152.00
2018-07-26T09:01:18.468Z,11096.00
2018-07-26T09:02:18.478Z,11056.00
2018-07-26T09:03:18.445Z,10976.00
2018-07-26T09:04:18.468Z,10904.00
2018-07-26T09:05:18.433Z,10828.00
2018-07-26T09:06:18.429Z,10740.00
2018-07-26T09:07:18.403Z,10644.00
2018-07-26T09:08:18.404Z,10560.00
2018-07-26T09:09:18.416Z,10480.00
2018-07-26T09:10:18.378Z,10396.00
2018-07-26T09:11:18.374Z,10304.00
2018-07-26T09:12:18.362Z,10216.00
2018-07-26T09:13:19.285Z,10112.00
2018-07-26T09:14:18.395Z,10024.00
2018-07-26T09:15:18.330Z,9940.00
2018-07-26T09:16:18.323Z,9864.00
2018-07-26T09:17:18.343Z,9792.00
2018-07-26T09:18:18.256Z,9736.00
2018-07-26T09:19:18.314Z,9676.00
2018-07-26T09:20:18.293Z,9624.00
2018-07-26T09:21:18.265Z,9564.00
2018-07-26T09:22:18.261Z,9520.00
2018-07-26T09:23:18.245Z,9476.00
2018-07-26T09:24:18.277Z,9436.00
2018-07-26T09:25:18.230Z,9404.00
2018-07-26T09:26:18.283Z,9356.00
2018-07-26T09:27:18.207Z,9312.00
2018-07-26T09:28:18.201Z,9264.00
2018-07-26T09:29:18.216Z,9224.00
2018-07-26T09:30:18.178Z,9192.00
2018-07-26T09:31:18.169Z,9160.00
2018-07-26T09:32:18.190Z,9112.00
2018-07-26T09:33:18.189Z,9056.00
2018-07-26T09:34:18.263Z,9012.00
2018-07-26T09:35:18.135Z,8976.00
2018-07-26T09:36:18.120Z,8948.00
2018-07-26T09:37:18.104Z,8916.00
2018-07-26T09:38:18.846Z,8872.00
2018-07-26T09:39:18.066Z,8840.00
2018-07-26T09:40:18.034Z,8820.00
2018-07-26T09:41:18.064Z,8808.00
2018-07-26T09:42:18.144Z,8784.00
2018-07-26T09:43:18.063Z,8740.00
2018-07-26T09:44:18.095Z,8708.00
2018-07-26T09:45:18.044Z,8684.00
2018-07-26T09:46:18.011Z,8644.00
2018-07-26T09:47:18.043Z,8604.00
2018-07-26T09:48:17.954Z,8564.00
2018-07-26T09:49:18.012Z,8516.00
2018-07-26T09:50:17.990Z,8464.00
2018-07-26T09:51:17.961Z,8412.00
2018-07-26T09:52:17.951Z,8376.00
2018-07-26T09:53:17.948Z,8356.00
2018-07-26T09:54:17.964Z,8340.00
2018-07-26T09:55:17.929Z,8320.00
2018-07-26T09:56:18.863Z,8296.00
2018-07-26T09:57:17.920Z,8268.00
2018-07-26T09:58:17.902Z,8244.00
2018-07-26T09:59:17.923Z,8220.00
2018-07-26T10:00:17.908Z,8196.00
2018-07-26T10:01:17.865Z,8172.00
2018-07-26T10:02:17.860Z,8156.00
2018-07-26T10:03:17.882Z,8128.00
2018-07-26T10:04:17.859Z,8104.00
2018-07-26T10:05:17.824Z,8072.00
2018-07-26T10:06:17.815Z,8040.00
2018-07-26T10:07:17.806Z,8008.00
2018-07-26T10:08:17.789Z,7984.00
2018-07-26T10:09:17.848Z,7936.00
2018-07-26T10:10:17.771Z,7892.00
2018-07-26T10:11:17.786Z,7836.00
2018-07-26T10:12:17.757Z,7800.00
2018-07-26T10:13:17.751Z,7764.00
2018-07-26T10:14:17.895Z,7740.00
2018-07-26T10:15:17.729Z,7704.00
2018-07-26T10:16:17.704Z,7672.00
2018-07-26T10:17:17.696Z,7636.00
2018-07-26T10:18:17.694Z,7608.00
2018-07-26T10:19:17.725Z,7576.00
2018-07-26T10:20:17.699Z,7556.00
2018-07-26T10:21:17.655Z,7536.00
2018-07-26T10:22:17.649Z,7520.00
2018-07-26T10:23:17.639Z,7500.00
2018-07-26T10:24:17.608Z,7480.00
2018-07-26T10:25:17.572Z,7468.00
2018-07-26T10:26:17.604Z,7448.00
2018-07-26T10:27:17.597Z,7436.00
2018-07-26T10:28:17.591Z,7416.00
2018-07-26T10:29:17.613Z,7408.00
2018-07-26T10:30:17.565Z,7384.00
2018-07-26T10:31:17.643Z,7380.00
2018-07-26T10:32:17.546Z,7372.00
2018-07-26T10:33:17.579Z,7356.00
2018-07-26T10:34:17.524Z,7344.00
2018-07-26T10:35:17.598Z,7344.00
2018-07-26T10:36:17.535Z,7336.00
2018-07-26T10:37:17.518Z,7344.00
2018-07-26T10:38:17.498Z,7376.00
2018-07-26T10:39:17.538Z,7408.00
2018-07-26T10:40:17.499Z,7432.00
2018-07-26T10:41:17.463Z,7408.00
2018-07-26T10:42:17.451Z,7384.00
2018-07-26T10:43:17.403Z,7396.00
2018-07-26T10:44:17.422Z,7424.00
2018-07-26T10:45:17.451Z,7444.00
2018-07-26T10:46:17.404Z,7492.00
2018-07-26T10:47:17.403Z,7568.00
2018-07-26T10:48:17.392Z,7640.00
2018-07-26T10:49:17.380Z,7668.00
2018-07-26T10:50:17.426Z,7684.00
2018-07-26T10:51:17.353Z,7716.00
2018-07-26T10:52:17.339Z,7772.00
2018-07-26T10:53:17.301Z,7816.00
2018-07-26T10:54:17.323Z,7840.00
2018-07-26T10:55:17.335Z,7864.00
2018-07-26T10:56:17.320Z,7900.00
2018-07-26T10:57:17.351Z,7876.00
2018-07-26T10:58:17.291Z,7872.00
2018-07-26T10:59:17.275Z,7876.00
2018-07-26T11:00:17.325Z,7952.00
2018-07-26T11:01:17.254Z,8092.00
2018-07-26T11:02:17.265Z,8300.00
2018-07-26T11:03:17.232Z,8544.00
2018-07-26T11:04:17.242Z,8800.00
2018-07-26T11:05:17.242Z,9072.00
2018-07-26T11:06:17.200Z,9248.00
2018-07-26T11:07:17.197Z,9404.00
2018-07-26T11:08:17.181Z,9480.00
2018-07-26T11:09:17.168Z,9588.00
2018-07-26T11:10:17.181Z,9704.00
2018-07-26T11:11:17.207Z,9948.00
2018-07-26T11:12:17.168Z,10028.00
2018-07-26T11:13:17.136Z,9952.00
2018-07-26T11:14:17.171Z,9804.00
2018-07-26T11:15:17.194Z,9612.00
2018-07-26T11:16:17.111Z,9400.00
2018-07-26T11:17:17.095Z,9072.00
2018-07-26T11:18:17.045Z,8876.00
2018-07-26T11:19:17.066Z,8772.00
2018-07-26T11:20:17.076Z,8512.00
2018-07-26T11:21:17.085Z,8492.00
2018-07-26T11:22:17.056Z,8612.00
2018-07-26T11:23:17.028Z,8836.00
2018-07-26T11:24:16.990Z,9068.00
2018-07-26T11:25:17.058Z,9076.00
2018-07-26T11:26:17.004Z,8864.00
2018-07-26T11:27:16.997Z,8672.00
2018-07-26T11:28:17.069Z,8440.00
2018-07-26T11:29:16.971Z,8264.00
2018-07-26T11:30:17.061Z,8268.00
2018-07-26T11:31:16.957Z,8276.00
2018-07-26T11:32:16.957Z,8192.00
2018-07-26T11:33:16.936Z,8196.00
2018-07-26T11:34:16.888Z,8152.00
2018-07-26T11:35:17.041Z,8044.00
2018-07-26T11:36:16.907Z,7936.00
2018-07-26T11:37:16.895Z,7804.00
2018-07-26T11:38:16.878Z,7628.00
2018-07-26T11:39:16.865Z,7532.00
2018-07-26T11:40:16.880Z,7548.00
2018-07-26T11:41:16.847Z,7572.00
2018-07-26T11:42:16.849Z,7600.00
2018-07-26T11:43:16.857Z,7604.00
2018-07-26T11:44:16.826Z,7588.00
2018-07-26T11:45:16.836Z,7620.00
2018-07-26T11:46:16.801Z,7728.00
2018-07-26T11:47:16.791Z,7808.00
2018-07-26T11:48:16.779Z,7752.00
2018-07-26T11:49:16.778Z,7596.00
2018-07-26T11:50:16.791Z,7400.00
2018-07-26T11:51:16.766Z,7204.00
2018-07-26T11:52:17.375Z,7040.00
2018-07-26T11:53:16.731Z,6980.00
2018-07-26T11:54:16.723Z,6936.00
2018-07-26T11:55:16.740Z,6868.00
2018-07-26T11:56:16.701Z,6820.00
2018-07-26T11:57:16.693Z,6812.00
2018-07-26T11:58:16.679Z,6832.00
2018-07-26T11:59:16.666Z,6860.00
2018-07-26T12:00:16.716Z,6804.00
2018-07-26T12:01:16.658Z,6760.00
2018-07-26T12:02:16.603Z,6732.00
2018-07-26T12:03:16.649Z,6740.00
2018-07-26T12:04:16.620Z,6772.00
2018-07-26T12:05:16.711Z,6812.00
2018-07-26T12:06:16.596Z,6472.00
2018-07-26T12:07:16.598Z,6364.00
2018-07-26T12:08:16.552Z,6424.00
2018-07-26T12:09:16.586Z,6568.00
2018-07-26T12:10:16.595Z,7068.00
2018-07-26T12:11:16.509Z,7076.00
2018-07-26T12:12:16.543Z,7128.00
2018-07-26T12:13:16.533Z,7180.00
2018-07-26T12:14:16.574Z,7224.00
2018-07-26T12:15:16.505Z,7180.00
2018-07-26T12:16:16.483Z,7164.00
2018-07-26T12:17:16.447Z,7208.00
2018-07-26T12:18:16.476Z,7332.00
2018-07-26T12:19:16.501Z,7260.00